createdAt,value
2023-11-05T00:02:51.900Z,4.63
2023-11-05T00:06:53.036Z,4.40
2023-11-05T00:10:54.188Z,5.30
2023-11-05T00:14:55.220Z,4.30
2023-11-05T00:18:56.284Z,4.07
2023-11-05T00:22:57.324Z,3.07
2023-11-05T00:26:58.513Z,3.50
2023-11-05T00:30:59.530Z,3.57
2023-11-05T00:35:01.118Z,4.73
2023-11-05T00:39:02.896Z,5.37
2023-11-05T00:43:06.952Z,5.47
2023-11-05T00:47:08.177Z,7.73
2023-11-05T00:51:09.276Z,8.50
2023-11-05T00:55:10.446Z,8.43
2023-11-05T00:59:11.441Z,7.33
2023-11-05T01:03:13.612Z,8.13
2023-11-05T01:07:14.752Z,7.77
2023-11-05T01:11:16.008Z,7.77
2023-11-05T01:15:17.607Z,7.47
2023-11-05T01:19:18.944Z,8.10
2023-11-05T01:23:20.861Z,6.27
2023-11-05T01:27:22.055Z,7.47
2023-11-05T01:31:23.808Z,7.83
2023-11-05T01:35:24.897Z,8.47
2023-11-05T01:39:26.558Z,8.50
2023-11-05T01:43:27.598Z,8.77
2023-11-05T01:47:28.881Z,10.60
2023-11-05T01:51:30.292Z,9.57
2023-11-05T01:55:32.995Z,10.30
2023-11-05T01:59:34.652Z,8.90
2023-11-05T02:03:41.405Z,8.17
2023-11-05T02:07:42.400Z,8.23
2023-11-05T02:11:43.646Z,8.00
2023-11-05T02:15:45.563Z,6.67
2023-11-05T02:19:46.910Z,6.77
2023-11-05T02:23:48.742Z,6.07
2023-11-05T02:27:51.555Z,7.07
2023-11-05T02:31:52.977Z,6.50
2023-11-05T02:35:54.152Z,7.07
2023-11-05T02:39:55.286Z,6.73
2023-11-05T02:43:56.316Z,5.57
2023-11-05T02:47:57.554Z,4.83
2023-11-05T02:51:58.747Z,3.47
2023-11-05T02:55:59.753Z,4.23
2023-11-05T03:00:01.352Z,3.27
2023-11-05T03:04:02.816Z,2.40
2023-11-05T03:08:04.517Z,3.40
2023-11-05T03:12:06.590Z,3.23
2023-11-05T03:16:12.543Z,2.93
2023-11-05T03:20:13.718Z,2.20
2023-11-05T03:24:14.753Z,2.87
2023-11-05T03:28:15.806Z,2.70
2023-11-05T03:32:16.835Z,2.37
2023-11-05T03:36:17.912Z,2.70
2023-11-05T03:40:19.825Z,2.47
2023-11-05T03:44:20.986Z,2.13
2023-11-05T03:48:22.260Z,2.20
2023-11-05T03:52:23.308Z,1.47
2023-11-05T03:56:24.435Z,2.10
2023-11-05T04:00:25.467Z,2.10
2023-11-05T04:04:28.169Z,2.77
2023-11-05T04:08:29.144Z,2.43
2023-11-05T04:12:30.302Z,2.73
2023-11-05T04:16:31.553Z,3.10
2023-11-05T04:20:32.803Z,2.57
2023-11-05T04:24:33.825Z,2.67
2023-11-05T04:28:35.231Z,3.83
2023-11-05T04:32:36.799Z,3.40
2023-11-05T04:36:40.998Z,4.10
2023-11-05T04:40:42.304Z,4.10
2023-11-05T04:44:43.462Z,4.03
2023-11-05T04:48:44.808Z,2.63
2023-11-05T04:52:45.978Z,2.73
2023-11-05T04:56:47.000Z,2.03
2023-11-05T05:00:48.230Z,2.20
2023-11-05T05:04:49.622Z,3.23
2023-11-05T05:08:50.818Z,3.40
2023-11-05T05:12:52.541Z,3.07
2023-11-05T05:16:56.998Z,2.27
2023-11-05T05:20:59.449Z,2.33
2023-11-05T05:25:00.627Z,2.63
2023-11-05T05:29:03.518Z,2.37
2023-11-05T05:33:04.870Z,1.90
2023-11-05T05:37:06.216Z,1.80
2023-11-05T05:41:07.502Z,1.30
2023-11-05T05:45:09.272Z,1.60
2023-11-05T05:49:10.296Z,0.87
2023-11-05T05:53:11.768Z,0.90
2023-11-05T05:57:12.884Z,1.17
2023-11-05T06:01:14.157Z,1.70
2023-11-05T06:05:15.430Z,1.00
2023-11-05T06:09:18.522Z,1.07
2023-11-05T06:13:22.877Z,0.93
2023-11-05T06:17:23.873Z,0.70
2023-11-05T06:21:24.949Z,1.10
2023-11-05T06:25:26.036Z,0.93
2023-11-05T06:29:27.050Z,0.90
2023-11-05T06:33:30.181Z,1.30
2023-11-05T06:37:31.446Z,1.37
2023-11-05T06:41:32.409Z,2.17
2023-11-05T06:45:33.596Z,1.60
2023-11-05T06:49:34.979Z,0.90
2023-11-05T06:53:36.079Z,1.10
2023-11-05T06:57:37.512Z,2.03
2023-11-05T07:01:38.737Z,1.00
2023-11-05T07:05:40.272Z,0.90
2023-11-05T07:09:41.281Z,1.07
2023-11-05T07:13:42.309Z,1.30
2023-11-05T07:17:43.484Z,1.23
2023-11-05T07:21:45.752Z,3.40
2023-11-05T07:25:46.756Z,1.83
2023-11-05T07:29:47.759Z,1.50
2023-11-05T07:33:48.823Z,0.97
2023-11-05T07:37:50.518Z,0.97
2023-11-05T07:41:51.709Z,0.50
2023-11-05T07:45:52.738Z,0.70
2023-11-05T07:49:53.914Z,0.77
2023-11-05T07:53:55.069Z,0.67
2023-11-05T07:57:56.210Z,1.07
2023-11-05T08:01:58.546Z,1.10
2023-11-05T08:05:59.915Z,0.60
2023-11-05T08:10:01.025Z,0.50
2023-11-05T08:14:02.258Z,0.70
2023-11-05T08:18:03.331Z,0.70
2023-11-05T08:22:04.858Z,1.00
2023-11-05T08:26:06.262Z,0.80
2023-11-05T08:30:10.242Z,0.60
2023-11-05T08:34:11.258Z,0.70
2023-11-05T08:38:12.667Z,0.50
2023-11-05T08:42:13.740Z,0.40
2023-11-05T08:46:14.886Z,0.53
2023-11-05T08:50:16.141Z,0.57
2023-11-05T08:54:17.134Z,1.17
2023-11-05T08:58:18.222Z,1.00
2023-11-05T09:02:19.400Z,0.60
2023-11-05T09:06:21.195Z,0.37
2023-11-05T09:10:25.210Z,0.40
2023-11-05T09:14:27.454Z,0.60
2023-11-05T09:18:29.408Z,0.40
2023-11-05T09:22:30.458Z,0.53
2023-11-05T09:26:33.230Z,0.87
2023-11-05T09:30:35.213Z,0.70
2023-11-05T09:34:37.407Z,0.53
2023-11-05T09:38:39.120Z,0.33
2023-11-05T09:43:01.122Z,1.40
2023-11-05T09:47:02.777Z,0.60
2023-11-05T09:51:04.214Z,3.00
2023-11-05T09:55:06.115Z,0.50
2023-11-05T09:59:07.310Z,0.43
2023-11-05T10:03:14.324Z,0.43
2023-11-05T10:07:15.830Z,0.43
2023-11-05T10:11:18.520Z,0.60
2023-11-05T10:15:19.767Z,0.30
2023-11-05T10:19:22.485Z,0.80
2023-11-05T10:23:24.599Z,0.40
2023-11-05T10:27:31.321Z,0.30
2023-11-05T10:31:33.808Z,0.43
2023-11-05T10:35:36.362Z,0.50
2023-11-05T10:39:37.629Z,1.00
2023-11-05T10:43:39.559Z,0.40
2023-11-05T10:47:41.248Z,0.30
2023-11-05T10:51:43.240Z,0.30
2023-11-05T10:55:44.399Z,0.60
2023-11-05T10:59:45.378Z,0.47
2023-11-05T11:03:46.805Z,0.20
2023-11-05T11:07:47.942Z,0.40
2023-11-05T11:11:49.590Z,0.30
2023-11-05T11:15:54.917Z,0.30
2023-11-05T11:19:56.257Z,0.37
2023-11-05T11:24:17.746Z,0.30
2023-11-05T11:28:21.669Z,0.40
2023-11-05T11:32:22.775Z,0.30
2023-11-05T11:36:24.267Z,0.43
2023-11-05T11:40:25.500Z,0.30
2023-11-05T11:44:27.163Z,0.40
2023-11-05T11:48:28.438Z,0.30
2023-11-05T11:52:31.498Z,0.60
2023-11-05T11:56:33.106Z,0.40
2023-11-05T12:00:34.124Z,0.47
2023-11-05T12:04:35.896Z,0.57
2023-11-05T12:08:39.863Z,0.50
2023-11-05T12:12:45.515Z,0.30
2023-11-05T12:16:49.953Z,0.43
2023-11-05T12:20:50.234Z,0.30
2023-11-05T12:24:51.296Z,0.20
2023-11-05T12:28:54.798Z,0.33
2023-11-05T12:32:56.254Z,0.43
2023-11-05T12:36:57.884Z,0.40
2023-11-05T12:40:59.588Z,1.07
2023-11-05T12:45:02.086Z,1.30
2023-11-05T12:49:03.602Z,0.60
2023-11-05T12:53:04.748Z,0.50
2023-11-05T12:57:07.287Z,0.50
2023-11-05T13:01:10.984Z,0.30
2023-11-05T13:05:12.898Z,0.20
2023-11-05T13:09:17.344Z,0.37
2023-11-05T13:13:19.492Z,0.30
2023-11-05T13:17:20.787Z,0.40
2023-11-05T13:21:21.811Z,0.60
2023-11-05T13:25:23.491Z,0.50
2023-11-05T13:29:25.340Z,0.63
2023-11-05T13:33:27.265Z,1.10
2023-11-05T13:37:28.501Z,1.20
2023-11-05T13:41:29.721Z,0.43
2023-11-05T13:45:30.732Z,0.70
2023-11-05T13:49:31.804Z,0.73
2023-11-05T13:53:33.051Z,0.53
2023-11-05T13:57:34.429Z,1.03
2023-11-05T14:01:35.667Z,1.67
2023-11-05T14:05:37.207Z,0.60
2023-11-05T14:09:38.428Z,0.47
2023-11-05T14:13:39.606Z,0.70
2023-11-05T14:17:41.627Z,0.40
2023-11-05T14:21:44.195Z,0.60
2023-11-05T14:25:45.451Z,0.63
2023-11-05T14:29:46.743Z,1.17
2023-11-05T14:33:47.789Z,0.43
2023-11-05T14:37:49.024Z,0.63
2023-11-05T14:41:50.696Z,0.53
2023-11-05T14:45:52.085Z,0.70
2023-11-05T14:49:53.122Z,0.60
2023-11-05T14:53:54.157Z,0.83
2023-11-05T14:57:55.179Z,1.53
2023-11-05T15:01:56.556Z,3.03
2023-11-05T15:05:57.904Z,0.90
2023-11-05T15:09:59.053Z,0.93
2023-11-05T15:14:00.591Z,1.10
2023-11-05T15:18:03.247Z,1.20
2023-11-05T15:22:06.490Z,0.77
2023-11-05T15:26:07.709Z,1.07
2023-11-05T15:30:09.685Z,1.23
2023-11-05T15:34:12.815Z,1.50
2023-11-05T15:38:13.811Z,1.30
2023-11-05T15:42:15.049Z,1.03
2023-11-05T15:46:16.141Z,1.53
2023-11-05T15:50:19.367Z,1.43
2023-11-05T15:54:20.595Z,1.47
2023-11-05T15:58:21.752Z,1.27
2023-11-05T16:02:22.826Z,1.00
2023-11-05T16:06:24.764Z,1.43
2023-11-05T16:10:26.661Z,1.90
2023-11-05T16:14:29.592Z,2.20
2023-11-05T16:18:31.049Z,1.57
2023-11-05T16:22:32.569Z,1.40
2023-11-05T16:26:34.121Z,1.63
2023-11-05T16:30:35.733Z,2.83
2023-11-05T16:34:39.656Z,2.03
2023-11-05T16:38:40.795Z,2.87
2023-11-05T16:42:41.828Z,2.23
2023-11-05T16:46:43.119Z,2.43
2023-11-05T16:50:45.084Z,2.97
2023-11-05T16:54:48.016Z,2.90
2023-11-05T16:58:49.229Z,2.50
2023-11-05T17:02:50.547Z,2.53
2023-11-05T17:06:51.767Z,2.70
2023-11-05T17:10:53.005Z,2.90
2023-11-05T17:14:54.969Z,2.90
2023-11-05T17:18:57.824Z,2.43
2023-11-05T17:23:00.526Z,2.97
2023-11-05T17:27:01.827Z,3.27
2023-11-05T17:31:03.183Z,4.77
2023-11-05T17:35:06.025Z,2.17
2023-11-05T17:39:08.928Z,1.87
2023-11-05T17:43:10.014Z,2.90
2023-11-05T17:47:11.064Z,2.10
2023-11-05T17:51:12.351Z,2.13
2023-11-05T17:55:13.540Z,2.40
2023-11-05T17:59:14.549Z,1.73
2023-11-05T18:03:15.931Z,2.03
2023-11-05T18:07:17.937Z,1.90
2023-11-05T18:11:20.174Z,2.33
2023-11-05T18:15:21.414Z,2.57
2023-11-05T18:19:22.559Z,2.87
2023-11-05T18:23:23.816Z,2.50
2023-11-05T18:27:25.076Z,2.40
2023-11-05T18:31:26.167Z,3.20
2023-11-05T18:35:27.983Z,2.80
2023-11-05T18:39:29.024Z,2.00
2023-11-05T18:43:30.031Z,1.97
2023-11-05T18:47:31.109Z,2.20
2023-11-05T18:51:32.080Z,1.77
2023-11-05T18:55:33.164Z,1.70
2023-11-05T18:59:36.085Z,2.10
2023-11-05T19:03:37.266Z,2.50
2023-11-05T19:07:39.607Z,2.37
2023-11-05T19:11:42.496Z,2.57
2023-11-05T19:15:43.520Z,2.13
2023-11-05T19:19:44.707Z,1.47
2023-11-05T19:23:45.781Z,2.23
2023-11-05T19:27:46.798Z,3.50
2023-11-05T19:31:48.777Z,2.40
2023-11-05T19:35:49.882Z,2.80
2023-11-05T19:39:51.060Z,2.03
2023-11-05T19:43:52.075Z,2.50
2023-11-05T19:47:53.437Z,2.53
2023-11-05T19:51:54.522Z,2.23
2023-11-05T19:55:57.127Z,2.27
2023-11-05T19:59:58.887Z,2.03
2023-11-05T20:04:01.774Z,1.70
2023-11-05T20:08:03.024Z,2.70
2023-11-05T20:12:04.644Z,1.77
2023-11-05T20:16:06.306Z,2.03
2023-11-05T20:20:08.453Z,1.80
2023-11-05T20:24:09.809Z,1.80
2023-11-05T20:28:11.406Z,2.03
2023-11-05T20:32:12.731Z,1.67
2023-11-05T20:36:13.827Z,1.70
2023-11-05T20:40:15.213Z,2.30
2023-11-05T20:44:16.550Z,2.47
2023-11-05T20:48:18.284Z,2.17
2023-11-05T20:52:19.411Z,1.53
2023-11-05T20:56:20.539Z,1.83
2023-11-05T21:00:23.566Z,2.17
2023-11-05T21:04:24.816Z,2.23
2023-11-05T21:08:25.925Z,1.80
2023-11-05T21:12:27.112Z,1.60
2023-11-05T21:16:28.858Z,2.17
2023-11-05T21:20:30.308Z,1.87
2023-11-05T21:24:31.393Z,1.93
2023-11-05T21:28:32.552Z,1.80
2023-11-05T21:32:33.682Z,2.83
2023-11-05T21:36:34.724Z,1.83
2023-11-05T21:40:35.775Z,2.00
2023-11-05T21:44:36.785Z,2.43
2023-11-05T21:48:38.139Z,2.20
2023-11-05T21:52:39.364Z,1.73
2023-11-05T21:56:40.392Z,1.30
2023-11-05T22:00:41.551Z,1.53
2023-11-05T22:04:42.815Z,1.50
2023-11-05T22:08:44.055Z,1.40
2023-11-05T22:12:45.302Z,2.33
2023-11-05T22:16:47.483Z,1.67
2023-11-05T22:20:49.306Z,1.30
2023-11-05T22:24:53.875Z,1.37
2023-11-05T22:28:55.035Z,1.40
2023-11-05T22:32:57.194Z,1.23
2023-11-05T22:37:00.437Z,1.13
2023-11-05T22:41:01.482Z,1.40
2023-11-05T22:45:02.819Z,1.40
2023-11-05T22:49:12.638Z,1.67
2023-11-05T22:53:07.511Z,1.27
2023-11-05T22:57:09.748Z,1.67
2023-11-05T23:01:12.827Z,1.90
2023-11-05T23:05:14.242Z,1.30
2023-11-05T23:09:16.585Z,1.50
2023-11-05T23:13:19.042Z,1.70
2023-11-05T23:17:20.132Z,2.60
2023-11-05T23:21:22.149Z,1.90
2023-11-05T23:25:29.388Z,3.03
2023-11-05T23:29:26.119Z,1.73
2023-11-05T23:33:27.171Z,1.43
2023-11-05T23:37:28.191Z,1.83
2023-11-05T23:41:29.226Z,2.00
2023-11-05T23:45:30.386Z,2.10
2023-11-05T23:49:31.552Z,2.17
2023-11-05T23:53:32.587Z,2.57
2023-11-05T23:57:33.613Z,2.40
